createdAt,value
2019-05-25T00:00:18.625Z,11.27
2019-05-25T00:02:47.799Z,10.60
2019-05-25T00:05:17.132Z,11.17
2019-05-25T00:07:45.969Z,11.17
2019-05-25T00:10:15.036Z,10.87
2019-05-25T00:12:43.928Z,11.40
2019-05-25T00:15:13.376Z,12.83
2019-05-25T00:17:42.197Z,10.03
2019-05-25T00:20:11.477Z,11.67
2019-05-25T00:22:40.377Z,11.43
2019-05-25T00:25:09.394Z,11.70
2019-05-25T00:27:38.599Z,11.53
2019-05-25T00:30:08.176Z,12.67
2019-05-25T00:32:36.985Z,11.57
2019-05-25T00:35:06.105Z,11.70
2019-05-25T00:37:35.177Z,11.13
2019-05-25T00:40:04.413Z,11.87
2019-05-25T00:42:33.280Z,11.50
2019-05-25T00:45:02.267Z,11.63
2019-05-25T00:47:31.117Z,10.53
2019-05-25T00:49:59.959Z,11.83
2019-05-25T00:52:29.052Z,10.53
2019-05-25T00:54:58.437Z,14.17
2019-05-25T00:57:27.258Z,11.83
2019-05-25T00:59:56.053Z,11.80
2019-05-25T01:02:24.945Z,11.27
2019-05-25T01:04:53.773Z,11.30
2019-05-25T01:07:22.803Z,11.33
2019-05-25T01:09:51.701Z,10.97
2019-05-25T01:12:20.530Z,11.77
2019-05-25T01:14:49.650Z,11.67
2019-05-25T01:17:18.861Z,12.83
2019-05-25T01:19:48.112Z,10.90
2019-05-25T01:22:17.169Z,10.60
2019-05-25T01:24:46.029Z,13.60
2019-05-25T01:27:15.000Z,11.90
2019-05-25T01:29:43.831Z,13.00
2019-05-25T01:32:12.698Z,11.77
2019-05-25T01:34:41.582Z,10.23
2019-05-25T01:37:10.441Z,12.67
2019-05-25T01:39:39.578Z,12.13
2019-05-25T01:42:08.696Z,12.33
2019-05-25T01:44:38.066Z,12.37
2019-05-25T01:47:07.199Z,12.17
2019-05-25T01:49:36.009Z,12.37
2019-05-25T01:52:04.990Z,14.90
2019-05-25T01:54:34.450Z,11.70
2019-05-25T01:57:03.388Z,13.10
2019-05-25T01:59:32.326Z,14.43
2019-05-25T02:02:01.234Z,13.30
2019-05-25T02:04:30.119Z,14.03
2019-05-25T02:06:58.951Z,12.57
2019-05-25T02:09:27.765Z,11.70
2019-05-25T02:11:56.662Z,11.80
2019-05-25T02:14:25.916Z,13.30
2019-05-25T02:16:54.730Z,13.27
2019-05-25T02:19:23.530Z,13.13
2019-05-25T02:21:52.505Z,12.63
2019-05-25T02:24:21.404Z,13.43
2019-05-25T02:26:50.645Z,12.53
2019-05-25T02:29:20.177Z,12.77
2019-05-25T02:31:48.989Z,13.03
2019-05-25T02:34:17.922Z,12.33
2019-05-25T02:36:46.860Z,12.73
2019-05-25T02:39:15.773Z,13.43
2019-05-25T02:41:44.578Z,12.43
2019-05-25T02:44:13.933Z,12.13
2019-05-25T02:46:42.883Z,13.17
2019-05-25T02:49:12.446Z,13.40
2019-05-25T02:51:41.597Z,12.53
2019-05-25T02:54:10.433Z,14.27
2019-05-25T02:56:39.314Z,15.13
2019-05-25T02:59:08.193Z,13.70
2019-05-25T03:01:37.151Z,13.97
2019-05-25T03:04:06.368Z,13.83
2019-05-25T03:06:35.448Z,13.87
2019-05-25T03:09:06.941Z,13.23
2019-05-25T03:11:35.924Z,12.87
2019-05-25T03:14:05.253Z,13.43
2019-05-25T03:16:34.061Z,16.50
2019-05-25T03:19:03.305Z,14.13
2019-05-25T03:21:32.780Z,15.47
2019-05-25T03:24:01.612Z,14.67
2019-05-25T03:26:30.429Z,14.63
2019-05-25T03:28:59.350Z,13.17
2019-05-25T03:31:28.161Z,13.80
2019-05-25T03:33:57.079Z,14.33
2019-05-25T03:36:25.889Z,13.00
2019-05-25T03:38:54.686Z,14.93
2019-05-25T03:41:23.949Z,13.13
2019-05-25T03:43:52.765Z,13.00
2019-05-25T03:46:21.568Z,13.53
2019-05-25T03:48:50.565Z,14.50
2019-05-25T03:51:19.620Z,12.70
2019-05-25T03:53:48.607Z,14.77
2019-05-25T03:56:17.522Z,17.10
2019-05-25T03:58:46.441Z,14.30
2019-05-25T04:01:15.336Z,14.50
2019-05-25T04:03:44.433Z,14.03
2019-05-25T04:06:13.316Z,13.30
2019-05-25T04:08:42.129Z,14.27
2019-05-25T04:11:11.058Z,13.27
2019-05-25T04:13:39.945Z,13.43
2019-05-25T04:16:08.777Z,14.20
2019-05-25T04:18:37.688Z,13.60
2019-05-25T04:21:06.913Z,14.00
2019-05-25T04:23:35.937Z,13.63
2019-05-25T04:26:20.920Z,13.40
2019-05-25T04:28:35.597Z,12.47
2019-05-25T04:31:04.551Z,13.40
2019-05-25T04:33:33.369Z,15.03
2019-05-25T04:36:02.630Z,13.83
2019-05-25T04:38:31.471Z,13.27
2019-05-25T04:41:00.286Z,13.67
2019-05-25T04:43:29.102Z,11.63
2019-05-25T04:45:58.514Z,12.77
2019-05-25T04:48:27.757Z,12.47
2019-05-25T04:50:56.660Z,12.73
2019-05-25T04:53:25.948Z,11.13
2019-05-25T04:55:55.124Z,12.87
2019-05-25T04:58:23.988Z,14.07
2019-05-25T05:00:52.826Z,13.67
2019-05-25T05:03:21.705Z,12.77
2019-05-25T05:05:50.793Z,14.87
2019-05-25T05:08:19.693Z,12.40
2019-05-25T05:10:48.674Z,11.17
2019-05-25T05:13:17.474Z,13.27
2019-05-25T05:15:46.265Z,11.70
2019-05-25T05:18:15.177Z,12.13
2019-05-25T05:20:44.289Z,12.23
2019-05-25T05:23:13.352Z,10.70
2019-05-25T05:25:42.320Z,12.43
2019-05-25T05:28:11.265Z,12.10
2019-05-25T05:30:40.267Z,10.20
2019-05-25T05:33:09.259Z,14.10
2019-05-25T05:35:39.175Z,12.93
2019-05-25T05:38:08.298Z,12.67
2019-05-25T05:40:38.201Z,13.33
2019-05-25T05:43:10.919Z,12.80
2019-05-25T05:45:41.909Z,11.70
2019-05-25T05:48:11.824Z,13.07
2019-05-25T05:50:40.940Z,12.53
2019-05-25T05:53:09.920Z,13.50
2019-05-25T05:55:39.095Z,13.03
2019-05-25T05:58:07.910Z,12.33
2019-05-25T06:00:37.121Z,11.40
2019-05-25T06:03:05.942Z,11.27
2019-05-25T06:05:34.879Z,11.67
2019-05-25T06:08:03.885Z,11.63
2019-05-25T06:10:32.722Z,13.60
2019-05-25T06:13:01.708Z,12.73
2019-05-25T06:15:30.997Z,11.37
2019-05-25T06:17:59.865Z,10.83
2019-05-25T06:20:29.161Z,12.07
2019-05-25T06:22:58.336Z,14.70
2019-05-25T06:25:27.251Z,12.00
2019-05-25T06:27:56.402Z,12.03
2019-05-25T06:30:25.401Z,10.40
2019-05-25T06:32:54.233Z,12.10
2019-05-25T06:35:23.402Z,11.77
2019-05-25T06:37:52.307Z,10.07
2019-05-25T06:40:21.440Z,11.50
2019-05-25T06:42:50.671Z,10.53
2019-05-25T06:45:20.017Z,10.32
2019-05-25T06:47:48.421Z,9.35
2019-05-25T06:50:17.766Z,10.25
2019-05-25T06:52:46.549Z,8.98
2019-05-25T06:55:15.734Z,9.78
2019-05-25T06:57:44.796Z,9.15
2019-05-25T07:00:14.034Z,8.75
2019-05-25T07:02:42.973Z,8.10
2019-05-25T07:05:12.864Z,8.85
2019-05-25T07:07:42.073Z,8.23
2019-05-25T07:10:11.129Z,8.78
2019-05-25T07:12:39.936Z,8.93
2019-05-25T07:15:10.644Z,9.05
2019-05-25T07:17:39.556Z,10.10
2019-05-25T07:20:09.440Z,8.35
2019-05-25T07:22:38.478Z,8.80
2019-05-25T07:25:07.722Z,9.03
2019-05-25T07:27:36.744Z,8.75
2019-05-25T07:30:05.842Z,11.28
2019-05-25T07:32:35.085Z,13.65
2019-05-25T07:35:04.457Z,9.15
2019-05-25T07:37:33.676Z,9.75
2019-05-25T07:40:02.597Z,9.70
2019-05-25T07:42:31.418Z,10.18
2019-05-25T07:45:00.314Z,12.40
2019-05-25T07:47:29.264Z,10.03
2019-05-25T07:49:58.166Z,7.78
2019-05-25T07:52:27.400Z,9.98
2019-05-25T07:54:56.295Z,8.80
2019-05-25T07:57:28.409Z,8.80
2019-05-25T07:59:55.726Z,10.32
2019-05-25T08:02:25.397Z,8.93
2019-05-25T08:04:54.624Z,10.10
2019-05-25T08:07:23.420Z,13.00
2019-05-25T08:09:52.214Z,12.75
2019-05-25T08:12:21.113Z,8.73
2019-05-25T08:14:49.977Z,8.90
2019-05-25T08:17:18.893Z,8.58
2019-05-25T08:19:47.717Z,8.08
2019-05-25T08:22:16.861Z,8.63
2019-05-25T08:24:45.832Z,8.90
2019-05-25T08:27:14.849Z,8.40
2019-05-25T08:29:43.928Z,8.73
2019-05-25T08:32:12.942Z,8.15
2019-05-25T08:34:41.873Z,8.23
2019-05-25T08:37:10.774Z,11.05
2019-05-25T08:39:39.641Z,7.00
2019-05-25T08:42:08.545Z,7.55
2019-05-25T08:44:37.692Z,7.67
2019-05-25T08:47:06.573Z,8.33
2019-05-25T08:49:35.464Z,6.87
2019-05-25T08:52:04.381Z,7.30
2019-05-25T08:54:33.181Z,7.90
2019-05-25T08:57:02.151Z,7.37
2019-05-25T08:59:31.093Z,8.08
2019-05-25T09:02:00.005Z,6.70
2019-05-25T09:04:28.850Z,6.92
2019-05-25T09:06:58.097Z,7.87
2019-05-25T09:09:27.265Z,6.85
2019-05-25T09:11:56.171Z,7.78
2019-05-25T09:14:25.054Z,8.25
2019-05-25T09:16:54.258Z,5.97
2019-05-25T09:19:23.142Z,7.37
2019-05-25T09:22:01.947Z,8.08
2019-05-25T09:24:22.599Z,7.72
2019-05-25T09:26:51.402Z,7.37
2019-05-25T09:29:20.198Z,7.95
2019-05-25T09:31:49.073Z,7.53
2019-05-25T09:34:17.945Z,7.87
2019-05-25T09:36:46.750Z,8.08
2019-05-25T09:39:15.788Z,8.65
2019-05-25T09:41:44.669Z,8.03
2019-05-25T09:44:13.628Z,6.83
2019-05-25T09:46:42.457Z,8.08
2019-05-25T09:49:11.858Z,10.72
2019-05-25T09:51:40.702Z,8.80
2019-05-25T09:54:10.870Z,7.95
2019-05-25T09:56:40.366Z,7.75
2019-05-25T09:59:19.838Z,6.70
2019-05-25T10:01:40.481Z,3.58
2019-05-25T10:04:09.530Z,4.12
2019-05-25T10:06:38.472Z,4.03
2019-05-25T10:09:08.180Z,3.83
2019-05-25T10:11:36.966Z,2.72
2019-05-25T10:14:06.121Z,3.52
2019-05-25T10:16:34.945Z,3.02
2019-05-25T10:19:03.817Z,5.17
2019-05-25T10:21:32.648Z,3.52
2019-05-25T10:24:01.472Z,4.83
2019-05-25T10:26:30.385Z,1.98
2019-05-25T10:28:59.190Z,1.47
2019-05-25T10:31:28.020Z,2.50
2019-05-25T10:33:56.916Z,2.12
2019-05-25T10:36:25.785Z,4.08
2019-05-25T10:38:54.733Z,2.90
2019-05-25T10:41:23.921Z,1.37
2019-05-25T10:43:53.150Z,1.60
2019-05-25T10:46:22.297Z,3.08
2019-05-25T10:48:51.442Z,2.65
2019-05-25T10:51:20.604Z,1.67
2019-05-25T10:53:49.471Z,2.62
2019-05-25T10:56:18.558Z,1.80
2019-05-25T10:58:47.608Z,1.70
2019-05-25T11:01:16.561Z,2.65
2019-05-25T11:03:45.383Z,1.45
2019-05-25T11:06:14.438Z,2.12
2019-05-25T11:08:43.427Z,2.15
2019-05-25T11:11:12.388Z,5.05
2019-05-25T11:13:41.194Z,1.40
2019-05-25T11:16:10.014Z,1.20
2019-05-25T11:18:39.221Z,2.77
2019-05-25T11:21:08.162Z,0.93
2019-05-25T11:23:37.096Z,3.65
2019-05-25T11:26:05.893Z,1.90
2019-05-25T11:28:34.773Z,5.83
2019-05-25T11:31:03.650Z,1.62
2019-05-25T11:33:35.859Z,1.30
2019-05-25T11:36:03.049Z,3.05
2019-05-25T11:38:31.857Z,3.60
2019-05-25T11:41:00.838Z,3.92
2019-05-25T11:43:29.784Z,1.82
2019-05-25T11:45:58.678Z,1.77
2019-05-25T11:48:27.633Z,1.45
2019-05-25T11:50:56.553Z,1.25
2019-05-25T11:53:25.555Z,1.75
2019-05-25T11:55:54.606Z,4.80
2019-05-25T11:58:23.512Z,1.82
2019-05-25T12:00:52.418Z,1.95
2019-05-25T12:03:21.336Z,1.62
2019-05-25T12:05:50.313Z,3.20
2019-05-25T12:08:19.172Z,2.27
2019-05-25T12:10:48.233Z,2.22
2019-05-25T12:13:17.129Z,1.32
2019-05-25T12:15:45.993Z,1.65
2019-05-25T12:18:14.973Z,1.00
2019-05-25T12:20:43.880Z,0.98
2019-05-25T12:23:12.936Z,3.15
2019-05-25T12:25:42.081Z,1.65
2019-05-25T12:28:10.889Z,1.50
2019-05-25T12:30:41.300Z,2.37
2019-05-25T12:33:10.601Z,1.17
2019-05-25T12:35:39.677Z,1.45
2019-05-25T12:38:08.541Z,1.12
2019-05-25T12:40:52.436Z,1.20
2019-05-25T12:43:08.012Z,2.10
2019-05-25T12:45:36.926Z,0.98
2019-05-25T12:48:06.320Z,1.27
2019-05-25T12:50:35.713Z,1.10
2019-05-25T12:53:04.659Z,1.10
2019-05-25T12:55:33.640Z,1.17
2019-05-25T12:58:02.650Z,2.72
2019-05-25T13:00:31.538Z,0.65
2019-05-25T13:03:00.342Z,1.00
2019-05-25T13:05:34.282Z,1.22
2019-05-25T13:08:00.113Z,1.45
2019-05-25T13:10:29.193Z,1.00
2019-05-25T13:13:01.416Z,2.80
2019-05-25T13:15:29.117Z,2.40
2019-05-25T13:17:58.009Z,2.17
2019-05-25T13:20:26.980Z,3.17
2019-05-25T13:22:55.864Z,1.90
2019-05-25T13:25:25.386Z,1.37
2019-05-25T13:27:54.215Z,1.07
2019-05-25T13:30:23.386Z,2.55
2019-05-25T13:32:52.361Z,1.27
2019-05-25T13:35:21.318Z,1.65
2019-05-25T13:37:50.604Z,1.07
2019-05-25T13:40:19.843Z,1.27
2019-05-25T13:42:48.737Z,1.07
2019-05-25T13:45:18.063Z,1.22
2019-05-25T13:47:46.830Z,1.65
2019-05-25T13:50:16.005Z,1.30
2019-05-25T13:52:44.789Z,1.50
2019-05-25T13:55:13.878Z,2.83
2019-05-25T13:57:42.700Z,1.50
2019-05-25T14:00:12.201Z,2.33
2019-05-25T14:02:41.308Z,1.72
2019-05-25T14:05:10.541Z,1.40
2019-05-25T14:07:39.753Z,1.55
2019-05-25T14:10:09.121Z,3.30
2019-05-25T14:12:38.336Z,12.78
2019-05-25T14:15:07.802Z,1.50
2019-05-25T14:17:37.011Z,2.95
2019-05-25T14:20:06.833Z,1.30
2019-05-25T14:22:35.822Z,1.37
2019-05-25T14:25:05.199Z,1.40
2019-05-25T14:27:34.109Z,11.97
2019-05-25T14:30:03.068Z,4.95
2019-05-25T14:32:31.868Z,5.22
2019-05-25T14:35:00.737Z,2.98
2019-05-25T14:37:29.641Z,4.00
2019-05-25T14:39:58.482Z,3.35
2019-05-25T14:42:26.936Z,3.62
2019-05-25T14:44:55.808Z,4.70
2019-05-25T14:47:24.977Z,7.17
2019-05-25T14:49:54.259Z,6.92
2019-05-25T14:52:23.105Z,6.72
2019-05-25T14:54:52.106Z,5.62
2019-05-25T14:57:20.995Z,6.55
2019-05-25T14:59:49.841Z,6.40
2019-05-25T15:02:18.861Z,9.55
2019-05-25T15:04:47.993Z,5.83
2019-05-25T15:07:17.148Z,6.37
2019-05-25T15:09:46.026Z,7.55
2019-05-25T15:12:14.910Z,8.40
2019-05-25T15:14:43.781Z,7.15
2019-05-25T15:17:13.008Z,8.18
2019-05-25T15:19:42.020Z,7.70
2019-05-25T15:22:11.264Z,9.13
2019-05-25T15:24:40.523Z,12.10
2019-05-25T15:27:09.446Z,9.90
2019-05-25T15:29:38.298Z,9.33
2019-05-25T15:32:19.394Z,10.00
2019-05-25T15:34:37.900Z,9.63
2019-05-25T15:37:07.066Z,9.57
2019-05-25T15:39:36.069Z,9.50
2019-05-25T15:42:05.112Z,8.43
2019-05-25T15:44:33.978Z,9.83
2019-05-25T15:47:05.022Z,8.88
2019-05-25T15:49:33.907Z,10.20
2019-05-25T15:52:02.975Z,8.48
2019-05-25T15:54:32.122Z,7.73
2019-05-25T15:57:01.096Z,7.80
2019-05-25T15:59:30.166Z,8.43
2019-05-25T16:01:59.064Z,7.45
2019-05-25T16:04:27.926Z,7.27
2019-05-25T16:06:56.841Z,6.65
2019-05-25T16:09:25.733Z,7.25
2019-05-25T16:11:54.708Z,6.80
2019-05-25T16:14:23.793Z,6.70
2019-05-25T16:16:52.637Z,6.20
2019-05-25T16:19:21.560Z,9.40
2019-05-25T16:21:50.667Z,6.10
2019-05-25T16:24:19.577Z,5.67
2019-05-25T16:26:48.749Z,4.33
2019-05-25T16:29:17.680Z,3.60
2019-05-25T16:31:46.588Z,4.65
2019-05-25T16:34:15.397Z,4.03
2019-05-25T16:36:44.342Z,5.40
2019-05-25T16:39:13.197Z,4.50
2019-05-25T16:41:42.069Z,4.70
2019-05-25T16:44:11.181Z,5.05
2019-05-25T16:46:40.108Z,9.13
2019-05-25T16:49:09.097Z,5.40
2019-05-25T16:51:37.991Z,5.40
2019-05-25T16:54:07.453Z,6.92
2019-05-25T16:56:36.490Z,5.45
2019-05-25T16:59:06.263Z,4.95
2019-05-25T17:01:47.674Z,5.03
2019-05-25T17:04:06.044Z,4.87
2019-05-25T17:06:34.972Z,6.28
2019-05-25T17:09:04.610Z,4.47
2019-05-25T17:11:33.756Z,5.20
2019-05-25T17:14:02.765Z,5.47
2019-05-25T17:16:31.887Z,5.25
2019-05-25T17:19:01.150Z,5.25
2019-05-25T17:21:30.023Z,4.87
2019-05-25T17:23:59.106Z,6.95
2019-05-25T17:26:28.111Z,6.35
2019-05-25T17:28:56.944Z,6.47
2019-05-25T17:31:26.210Z,7.20
2019-05-25T17:33:55.534Z,7.72
2019-05-25T17:36:24.501Z,9.40
2019-05-25T17:38:53.289Z,6.25
2019-05-25T17:41:22.258Z,6.40
2019-05-25T17:43:51.310Z,6.83
2019-05-25T17:46:20.153Z,6.75
2019-05-25T17:48:49.161Z,6.20
2019-05-25T17:51:17.965Z,7.45
2019-05-25T17:53:47.125Z,6.97
2019-05-25T17:56:15.952Z,6.78
2019-05-25T17:58:44.841Z,7.15
2019-05-25T18:01:13.891Z,7.67
2019-05-25T18:03:42.924Z,7.53
2019-05-25T18:06:12.036Z,7.37
2019-05-25T18:08:40.957Z,8.05
2019-05-25T18:11:09.854Z,7.23
2019-05-25T18:13:38.948Z,7.00
2019-05-25T18:16:07.909Z,7.37
2019-05-25T18:18:36.794Z,6.50
2019-05-25T18:21:05.781Z,7.23
2019-05-25T18:23:35.193Z,7.40
2019-05-25T18:26:04.165Z,6.93
2019-05-25T18:28:33.068Z,7.83
2019-05-25T18:31:02.162Z,8.07
2019-05-25T18:33:31.356Z,6.40
2019-05-25T18:36:00.264Z,7.90
2019-05-25T18:38:29.210Z,7.47
2019-05-25T18:40:58.478Z,7.27
2019-05-25T18:43:27.337Z,8.20
2019-05-25T18:45:56.513Z,7.60
2019-05-25T18:48:25.406Z,7.33
2019-05-25T18:50:54.349Z,7.33
2019-05-25T18:53:23.289Z,8.23
2019-05-25T18:55:52.260Z,9.77
2019-05-25T18:58:21.081Z,8.37
2019-05-25T19:00:50.072Z,7.87
2019-05-25T19:03:19.012Z,9.10
2019-05-25T19:05:47.903Z,8.63
2019-05-25T19:08:16.733Z,9.53
2019-05-25T19:10:45.909Z,9.70
2019-05-25T19:13:14.809Z,9.87
2019-05-25T19:15:44.017Z,9.97
2019-05-25T19:18:13.104Z,9.23
2019-05-25T19:20:42.025Z,12.93
2019-05-25T19:23:11.030Z,11.97
2019-05-25T19:25:39.943Z,9.90
2019-05-25T19:28:08.850Z,9.13
2019-05-25T19:30:37.671Z,8.60
2019-05-25T19:33:06.679Z,9.27
2019-05-25T19:35:35.568Z,7.97
2019-05-25T19:38:04.516Z,8.63
2019-05-25T19:40:33.401Z,8.73
2019-05-25T19:43:02.361Z,9.23
2019-05-25T19:45:32.827Z,9.07
2019-05-25T19:48:01.990Z,9.97
2019-05-25T19:50:31.013Z,9.00
2019-05-25T19:52:59.936Z,9.80
2019-05-25T19:55:28.997Z,9.60
2019-05-25T19:57:57.964Z,9.80
2019-05-25T20:00:26.974Z,9.70
2019-05-25T20:02:56.315Z,9.80
2019-05-25T20:05:25.730Z,8.87
2019-05-25T20:07:54.567Z,9.10
2019-05-25T20:10:23.569Z,9.27
2019-05-25T20:12:53.706Z,8.43
2019-05-25T20:15:22.780Z,9.37
2019-05-25T20:17:51.678Z,8.83
2019-05-25T20:20:20.750Z,9.37
2019-05-25T20:22:49.692Z,8.53
2019-05-25T20:25:18.700Z,11.13
2019-05-25T20:27:47.714Z,10.20
2019-05-25T20:30:16.662Z,11.70
2019-05-25T20:32:45.717Z,10.07
2019-05-25T20:35:31.309Z,10.40
2019-05-25T20:37:45.465Z,10.07
2019-05-25T20:40:14.619Z,10.83
2019-05-25T20:42:43.626Z,13.67
2019-05-25T20:45:12.667Z,10.50
2019-05-25T20:47:41.568Z,11.97
2019-05-25T20:50:12.034Z,11.03
2019-05-25T20:52:40.826Z,10.10
2019-05-25T20:55:09.808Z,10.77
2019-05-25T20:57:38.817Z,11.53
2019-05-25T21:00:08.139Z,12.50
2019-05-25T21:02:37.254Z,10.80
2019-05-25T21:05:06.621Z,10.80
2019-05-25T21:07:35.561Z,10.80
2019-05-25T21:10:05.566Z,10.83
2019-05-25T21:12:34.441Z,13.03
2019-05-25T21:15:03.402Z,13.57
2019-05-25T21:17:32.723Z,12.03
2019-05-25T21:20:01.865Z,12.40
2019-05-25T21:22:30.788Z,13.07
2019-05-25T21:25:05.527Z,12.57
2019-05-25T21:27:30.303Z,12.37
2019-05-25T21:29:59.461Z,13.00
2019-05-25T21:32:28.386Z,13.53
2019-05-25T21:34:57.433Z,14.87
2019-05-25T21:37:26.283Z,13.63
2019-05-25T21:39:55.173Z,13.30
2019-05-25T21:42:24.189Z,12.53
2019-05-25T21:44:53.347Z,14.30
2019-05-25T21:47:22.283Z,14.77
2019-05-25T21:49:51.305Z,14.23
2019-05-25T21:52:20.520Z,13.93
2019-05-25T21:54:49.466Z,14.57
2019-05-25T21:57:18.533Z,14.90
2019-05-25T21:59:47.346Z,13.30
2019-05-25T22:02:16.259Z,13.27
2019-05-25T22:04:45.437Z,12.43
2019-05-25T22:07:14.252Z,11.33
2019-05-25T22:09:43.105Z,12.33
2019-05-25T22:12:12.481Z,13.73
2019-05-25T22:14:41.321Z,14.57
2019-05-25T22:17:10.408Z,13.47
2019-05-25T22:19:39.355Z,11.50
2019-05-25T22:22:08.317Z,12.53
2019-05-25T22:24:37.401Z,13.87
2019-05-25T22:27:06.345Z,12.60
2019-05-25T22:29:35.266Z,12.53
2019-05-25T22:32:04.291Z,13.83
2019-05-25T22:34:33.694Z,13.97
2019-05-25T22:37:02.512Z,14.37
2019-05-25T22:39:31.610Z,14.43
2019-05-25T22:42:00.467Z,22.80
2019-05-25T22:44:29.547Z,15.40
2019-05-25T22:46:58.729Z,17.27
2019-05-25T22:49:27.556Z,18.73
2019-05-25T22:51:56.657Z,15.07
2019-05-25T22:54:25.805Z,15.37
2019-05-25T22:56:54.827Z,15.47
2019-05-25T22:59:23.759Z,13.87
2019-05-25T23:01:52.829Z,16.77
2019-05-25T23:04:21.717Z,18.07
2019-05-25T23:06:57.851Z,21.37
2019-05-25T23:09:21.068Z,17.67
2019-05-25T23:11:49.960Z,20.60
2019-05-25T23:14:19.024Z,23.17
2019-05-25T23:16:47.854Z,21.57
2019-05-25T23:19:17.041Z,21.23
2019-05-25T23:21:45.847Z,22.93
2019-05-25T23:24:14.711Z,21.17
2019-05-25T23:26:43.622Z,21.40
2019-05-25T23:29:12.535Z,27.67
2019-05-25T23:31:41.497Z,28.63
2019-05-25T23:34:10.373Z,26.93
2019-05-25T23:36:39.452Z,26.80
2019-05-25T23:39:08.341Z,26.93
2019-05-25T23:41:37.281Z,27.90
2019-05-25T23:44:06.234Z,38.47
2019-05-25T23:46:35.120Z,26.37
2019-05-25T23:49:04.325Z,25.47
2019-05-25T23:51:33.216Z,28.00
2019-05-25T23:54:02.303Z,27.10
2019-05-25T23:56:31.458Z,29.60
2019-05-25T23:59:00.305Z,28.93
